sensor_id;sensor_type;location;lat;lon;timestamp;P1;durP1;ratioP1;P2;durP2;ratioP2
74459;SDS011;62902;48.854;9.292;2023-02-01T00:00:59;731.08;;;532.08;;
74459;SDS011;62902;48.854;9.292;2023-02-01T00:03:34;726.00;;;526.90;;
74459;SDS011;62902;48.854;9.292;2023-02-01T00:06:01;735.22;;;536.60;;
74459;SDS011;62902;48.854;9.292;2023-02-01T00:08:28;719.67;;;519.97;;
74459;SDS011;62902;48.854;9.292;2023-02-01T00:11:01;715.97;;;504.23;;
74459;SDS011;62902;48.854;9.292;2023-02-01T00:13:33;738.10;;;537.63;;
74459;SDS011;62902;48.854;9.292;2023-02-01T00:18:38;472.38;;;275.83;;
74459;SDS011;62902;48.854;9.292;2023-02-01T00:21:05;510.75;;;363.13;;
74459;SDS011;62902;48.854;9.292;2023-02-01T00:23:32;496.05;;;406.52;;
74459;SDS011;62902;48.854;9.292;2023-02-01T00:26:04;592.15;;;446.58;;
74459;SDS011;62902;48.854;9.292;2023-02-01T00:28:32;356.00;;;229.32;;
74459;SDS011;62902;48.854;9.292;2023-02-01T00:30:59;517.88;;;430.52;;
74459;SDS011;62902;48.854;9.292;2023-02-01T00:33:28;436.52;;;322.05;;
74459;SDS011;62902;48.854;9.292;2023-02-01T00:35:56;576.53;;;494.20;;
74459;SDS011;62902;48.854;9.292;2023-02-01T00:38:24;5.80;;;2.70;;
74459;SDS011;62902;48.854;9.292;2023-02-01T00:40:51;423.98;;;298.15;;
74459;SDS011;62902;48.854;9.292;2023-02-01T00:43:17;557.95;;;412.23;;
74459;SDS011;62902;48.854;9.292;2023-02-01T00:45:46;508.40;;;353.35;;
74459;SDS011;62902;48.854;9.292;2023-02-01T00:48:13;463.90;;;360.27;;
74459;SDS011;62902;48.854;9.292;2023-02-01T00:50:42;488.98;;;393.65;;
74459;SDS011;62902;48.854;9.292;2023-02-01T00:53:10;546.90;;;486.77;;
74459;SDS011;62902;48.854;9.292;2023-02-01T00:55:37;486.02;;;422.92;;
74459;SDS011;62902;48.854;9.292;2023-02-01T00:58:03;399.42;;;336.70;;
74459;SDS011;62902;48.854;9.292;2023-02-01T01:00:32;250.60;;;190.23;;
74459;SDS011;62902;48.854;9.292;2023-02-01T01:02:59;449.83;;;380.35;;
74459;SDS011;62902;48.854;9.292;2023-02-01T01:05:25;488.85;;;436.88;;
74459;SDS011;62902;48.854;9.292;2023-02-01T01:07:53;533.65;;;477.10;;
74459;SDS011;62902;48.854;9.292;2023-02-01T01:10:20;519.47;;;453.02;;
74459;SDS011;62902;48.854;9.292;2023-02-01T01:12:47;243.70;;;217.45;;
74459;SDS011;62902;48.854;9.292;2023-02-01T01:15:14;445.35;;;351.95;;
74459;SDS011;62902;48.854;9.292;2023-02-01T01:17:40;99.78;;;88.80;;
74459;SDS011;62902;48.854;9.292;2023-02-01T01:20:07;136.13;;;114.07;;
74459;SDS011;62902;48.854;9.292;2023-02-01T01:22:34;399.83;;;356.33;;
74459;SDS011;62902;48.854;9.292;2023-02-01T01:25:01;299.02;;;222.50;;
74459;SDS011;62902;48.854;9.292;2023-02-01T01:27:27;375.30;;;333.08;;
74459;SDS011;62902;48.854;9.292;2023-02-01T01:29:54;6.72;;;3.88;;
74459;SDS011;62902;48.854;9.292;2023-02-01T01:32:20;13.02;;;5.95;;
74459;SDS011;62902;48.854;9.292;2023-02-01T01:34:48;18.60;;;15.60;;
74459;SDS011;62902;48.854;9.292;2023-02-01T01:37:14;29.23;;;26.02;;
74459;SDS011;62902;48.854;9.292;2023-02-01T01:39:41;15.23;;;13.63;;
74459;SDS011;62902;48.854;9.292;2023-02-01T01:42:09;62.17;;;45.97;;
74459;SDS011;62902;48.854;9.292;2023-02-01T01:47:28;30.50;;;27.35;;
74459;SDS011;62902;48.854;9.292;2023-02-01T01:49:58;284.45;;;227.48;;
74459;SDS011;62902;48.854;9.292;2023-02-01T01:52:25;400.77;;;337.20;;
74459;SDS011;62902;48.854;9.292;2023-02-01T01:54:52;283.92;;;252.80;;
74459;SDS011;62902;48.854;9.292;2023-02-01T01:57:24;379.25;;;338.17;;
74459;SDS011;62902;48.854;9.292;2023-02-01T01:59:55;363.25;;;321.83;;
74459;SDS011;62902;48.854;9.292;2023-02-01T02:02:26;318.80;;;283.67;;
74459;SDS011;62902;48.854;9.292;2023-02-01T02:04:53;396.13;;;353.92;;
74459;SDS011;62902;48.854;9.292;2023-02-01T02:07:21;13.10;;;10.95;;
74459;SDS011;62902;48.854;9.292;2023-02-01T02:09:50;297.85;;;265.88;;
74459;SDS011;62902;48.854;9.292;2023-02-01T02:12:26;338.88;;;261.60;;
74459;SDS011;62902;48.854;9.292;2023-02-01T02:14:54;5.22;;;2.60;;
74459;SDS011;62902;48.854;9.292;2023-02-01T02:45:28;81.70;;;72.90;;
74459;SDS011;62902;48.854;9.292;2023-02-01T02:48:23;423.00;;;324.02;;
74459;SDS011;62902;48.854;9.292;2023-02-01T02:51:01;426.70;;;353.20;;
74459;SDS011;62902;48.854;9.292;2023-02-01T02:53:57;473.38;;;371.00;;
74459;SDS011;62902;48.854;9.292;2023-02-01T02:56:46;476.98;;;385.23;;
74459;SDS011;62902;48.854;9.292;2023-02-01T02:59:32;443.92;;;334.13;;
74459;SDS011;62902;48.854;9.292;2023-02-01T03:02:17;311.77;;;244.13;;
74459;SDS011;62902;48.854;9.292;2023-02-01T03:05:03;192.80;;;140.65;;
74459;SDS011;62902;48.854;9.292;2023-02-01T03:07:49;195.77;;;141.00;;
74459;SDS011;62902;48.854;9.292;2023-02-01T03:13:10;100.93;;;89.32;;
74459;SDS011;62902;48.854;9.292;2023-02-01T03:15:43;74.75;;;67.32;;
74459;SDS011;62902;48.854;9.292;2023-02-01T03:18:57;155.43;;;126.70;;
74459;SDS011;62902;48.854;9.292;2023-02-01T03:21:28;407.10;;;328.83;;
74459;SDS011;62902;48.854;9.292;2023-02-01T03:23:58;125.25;;;108.78;;
74459;SDS011;62902;48.854;9.292;2023-02-01T03:26:28;353.42;;;292.33;;
74459;SDS011;62902;48.854;9.292;2023-02-01T03:29:00;26.73;;;24.65;;
74459;SDS011;62902;48.854;9.292;2023-02-01T03:31:30;53.70;;;49.10;;
74459;SDS011;62902;48.854;9.292;2023-02-01T03:33:57;84.30;;;75.07;;
74459;SDS011;62902;48.854;9.292;2023-02-01T03:41:50;445.13;;;318.52;;
74459;SDS011;62902;48.854;9.292;2023-02-01T03:44:21;139.50;;;109.07;;
74459;SDS011;62902;48.854;9.292;2023-02-01T03:46:54;170.45;;;133.95;;
74459;SDS011;62902;48.854;9.292;2023-02-01T03:49:26;360.33;;;323.70;;
74459;SDS011;62902;48.854;9.292;2023-02-01T03:51:55;388.20;;;348.85;;
74459;SDS011;62902;48.854;9.292;2023-02-01T03:54:23;334.85;;;300.17;;
74459;SDS011;62902;48.854;9.292;2023-02-01T03:56:51;41.80;;;37.63;;
74459;SDS011;62902;48.854;9.292;2023-02-01T03:59:18;11.45;;;8.50;;
74459;SDS011;62902;48.854;9.292;2023-02-01T04:01:45;104.20;;;86.88;;
74459;SDS011;62902;48.854;9.292;2023-02-01T04:04:12;450.30;;;402.23;;
74459;SDS011;62902;48.854;9.292;2023-02-01T04:06:49;532.60;;;479.38;;
74459;SDS011;62902;48.854;9.292;2023-02-01T04:09:16;370.95;;;330.35;;
74459;SDS011;62902;48.854;9.292;2023-02-01T04:11:43;522.00;;;465.98;;
74459;SDS011;62902;48.854;9.292;2023-02-01T04:14:10;679.80;;;489.02;;
74459;SDS011;62902;48.854;9.292;2023-02-01T04:16:37;762.40;;;540.08;;
74459;SDS011;62902;48.854;9.292;2023-02-01T04:19:03;794.70;;;563.97;;
74459;SDS011;62902;48.854;9.292;2023-02-01T04:21:30;806.35;;;575.45;;
74459;SDS011;62902;48.854;9.292;2023-02-01T04:23:56;815.60;;;578.80;;
74459;SDS011;62902;48.854;9.292;2023-02-01T04:26:23;826.03;;;592.17;;
74459;SDS011;62902;48.854;9.292;2023-02-01T04:28:50;823.25;;;591.38;;
74459;SDS011;62902;48.854;9.292;2023-02-01T04:31:18;810.58;;;580.38;;
74459;SDS011;62902;48.854;9.292;2023-02-01T04:33:52;808.88;;;576.58;;
74459;SDS011;62902;48.854;9.292;2023-02-01T04:36:20;820.60;;;587.25;;
74459;SDS011;62902;48.854;9.292;2023-02-01T04:38:48;812.45;;;583.15;;
74459;SDS011;62902;48.854;9.292;2023-02-01T04:41:15;812.67;;;583.05;;
74459;SDS011;62902;48.854;9.292;2023-02-01T04:43:45;815.80;;;587.35;;
74459;SDS011;62902;48.854;9.292;2023-02-01T04:46:15;815.58;;;584.80;;
74459;SDS011;62902;48.854;9.292;2023-02-01T04:48:42;817.38;;;589.63;;
74459;SDS011;62902;48.854;9.292;2023-02-01T04:51:09;822.00;;;596.22;;
74459;SDS011;62902;48.854;9.292;2023-02-01T04:53:36;812.60;;;593.35;;
74459;SDS011;62902;48.854;9.292;2023-02-01T04:56:03;808.07;;;576.27;;
74459;SDS011;62902;48.854;9.292;2023-02-01T04:58:30;815.13;;;592.57;;
74459;SDS011;62902;48.854;9.292;2023-02-01T05:00:57;816.05;;;597.13;;
74459;SDS011;62902;48.854;9.292;2023-02-01T05:03:23;831.73;;;593.67;;
74459;SDS011;62902;48.854;9.292;2023-02-01T05:05:50;818.25;;;590.72;;
74459;SDS011;62902;48.854;9.292;2023-02-01T05:08:19;833.13;;;593.50;;
74459;SDS011;62902;48.854;9.292;2023-02-01T05:10:48;659.08;;;393.35;;
74459;SDS011;62902;48.854;9.292;2023-02-01T05:13:15;397.17;;;252.60;;
74459;SDS011;62902;48.854;9.292;2023-02-01T05:16:11;289.67;;;186.18;;
74459;SDS011;62902;48.854;9.292;2023-02-01T05:18:38;47.83;;;42.83;;
74459;SDS011;62902;48.854;9.292;2023-02-01T05:21:04;324.52;;;215.82;;
74459;SDS011;62902;48.854;9.292;2023-02-01T05:23:31;394.10;;;277.95;;
74459;SDS011;62902;48.854;9.292;2023-02-01T05:26:01;448.27;;;357.85;;
74459;SDS011;62902;48.854;9.292;2023-02-01T05:28:28;487.65;;;435.02;;
74459;SDS011;62902;48.854;9.292;2023-02-01T05:30:55;462.90;;;402.25;;
74459;SDS011;62902;48.854;9.292;2023-02-01T05:33:21;501.08;;;446.67;;
74459;SDS011;62902;48.854;9.292;2023-02-01T05:35:48;501.52;;;447.52;;
74459;SDS011;62902;48.854;9.292;2023-02-01T05:38:16;607.47;;;448.60;;
74459;SDS011;62902;48.854;9.292;2023-02-01T05:40:44;403.30;;;239.00;;
74459;SDS011;62902;48.854;9.292;2023-02-01T05:43:15;471.90;;;264.00;;
74459;SDS011;62902;48.854;9.292;2023-02-01T05:45:42;506.05;;;331.60;;
74459;SDS011;62902;48.854;9.292;2023-02-01T05:48:08;511.20;;;377.35;;
74459;SDS011;62902;48.854;9.292;2023-02-01T05:50:35;519.22;;;441.52;;
74459;SDS011;62902;48.854;9.292;2023-02-01T05:53:07;503.77;;;419.85;;
74459;SDS011;62902;48.854;9.292;2023-02-01T05:55:34;515.35;;;420.10;;
74459;SDS011;62902;48.854;9.292;2023-02-01T05:58:00;533.45;;;455.35;;
74459;SDS011;62902;48.854;9.292;2023-02-01T06:00:27;724.55;;;493.88;;
74459;SDS011;62902;48.854;9.292;2023-02-01T06:02:53;746.70;;;501.15;;
74459;SDS011;62902;48.854;9.292;2023-02-01T06:05:20;786.75;;;519.58;;
74459;SDS011;62902;48.854;9.292;2023-02-01T06:07:47;781.07;;;513.10;;
74459;SDS011;62902;48.854;9.292;2023-02-01T06:10:14;779.17;;;507.25;;
74459;SDS011;62902;48.854;9.292;2023-02-01T06:12:41;787.42;;;510.30;;
74459;SDS011;62902;48.854;9.292;2023-02-01T06:15:08;800.47;;;514.42;;
74459;SDS011;62902;48.854;9.292;2023-02-01T06:17:34;774.97;;;497.70;;
74459;SDS011;62902;48.854;9.292;2023-02-01T06:20:01;768.03;;;494.27;;
74459;SDS011;62902;48.854;9.292;2023-02-01T06:22:28;777.40;;;513.30;;
74459;SDS011;62902;48.854;9.292;2023-02-01T06:24:54;796.40;;;513.50;;
74459;SDS011;62902;48.854;9.292;2023-02-01T06:27:21;790.17;;;503.75;;
74459;SDS011;62902;48.854;9.292;2023-02-01T06:29:47;810.83;;;526.00;;
74459;SDS011;62902;48.854;9.292;2023-02-01T06:32:14;808.15;;;528.42;;
74459;SDS011;62902;48.854;9.292;2023-02-01T06:34:40;809.58;;;529.72;;
74459;SDS011;62902;48.854;9.292;2023-02-01T06:37:08;835.20;;;528.65;;
74459;SDS011;62902;48.854;9.292;2023-02-01T06:39:34;814.58;;;528.17;;
74459;SDS011;62902;48.854;9.292;2023-02-01T06:42:01;805.88;;;536.80;;
74459;SDS011;62902;48.854;9.292;2023-02-01T06:44:28;815.30;;;527.25;;
74459;SDS011;62902;48.854;9.292;2023-02-01T06:46:54;818.13;;;526.28;;
74459;SDS011;62902;48.854;9.292;2023-02-01T06:49:21;815.38;;;538.13;;
74459;SDS011;62902;48.854;9.292;2023-02-01T06:51:51;766.72;;;503.95;;
74459;SDS011;62902;48.854;9.292;2023-02-01T06:54:17;758.70;;;486.63;;
74459;SDS011;62902;48.854;9.292;2023-02-01T06:56:44;774.55;;;496.00;;
74459;SDS011;62902;48.854;9.292;2023-02-01T06:59:11;777.70;;;483.58;;
74459;SDS011;62902;48.854;9.292;2023-02-01T07:01:37;849.53;;;532.42;;
74459;SDS011;62902;48.854;9.292;2023-02-01T07:04:04;836.85;;;539.72;;
74459;SDS011;62902;48.854;9.292;2023-02-01T07:06:31;837.13;;;549.28;;
74459;SDS011;62902;48.854;9.292;2023-02-01T07:08:57;819.03;;;541.83;;
74459;SDS011;62902;48.854;9.292;2023-02-01T07:11:24;811.05;;;534.38;;
74459;SDS011;62902;48.854;9.292;2023-02-01T07:13:53;805.38;;;531.58;;
74459;SDS011;62902;48.854;9.292;2023-02-01T07:16:20;835.53;;;556.72;;
74459;SDS011;62902;48.854;9.292;2023-02-01T07:18:49;841.03;;;558.10;;
74459;SDS011;62902;48.854;9.292;2023-02-01T07:21:17;835.90;;;558.40;;
74459;SDS011;62902;48.854;9.292;2023-02-01T07:23:44;818.65;;;534.38;;
74459;SDS011;62902;48.854;9.292;2023-02-01T07:26:12;822.57;;;535.70;;
74459;SDS011;62902;48.854;9.292;2023-02-01T07:28:40;809.28;;;535.75;;
74459;SDS011;62902;48.854;9.292;2023-02-01T07:31:07;817.55;;;544.13;;
74459;SDS011;62902;48.854;9.292;2023-02-01T07:33:35;797.35;;;525.72;;
74459;SDS011;62902;48.854;9.292;2023-02-01T07:36:04;772.45;;;510.33;;
74459;SDS011;62902;48.854;9.292;2023-02-01T07:38:32;770.97;;;506.73;;
74459;SDS011;62902;48.854;9.292;2023-02-01T07:41:00;795.57;;;528.27;;
74459;SDS011;62902;48.854;9.292;2023-02-01T07:43:27;782.83;;;522.07;;
74459;SDS011;62902;48.854;9.292;2023-02-01T07:45:54;805.75;;;540.03;;
74459;SDS011;62902;48.854;9.292;2023-02-01T07:48:22;823.07;;;538.67;;
74459;SDS011;62902;48.854;9.292;2023-02-01T07:50:59;795.55;;;528.75;;
74459;SDS011;62902;48.854;9.292;2023-02-01T07:53:28;790.17;;;526.45;;
74459;SDS011;62902;48.854;9.292;2023-02-01T07:55:55;779.85;;;509.45;;
74459;SDS011;62902;48.854;9.292;2023-02-01T07:58:22;786.27;;;526.00;;
74459;SDS011;62902;48.854;9.292;2023-02-01T08:00:50;794.33;;;530.13;;
74459;SDS011;62902;48.854;9.292;2023-02-01T08:03:35;804.88;;;530.58;;
74459;SDS011;62902;48.854;9.292;2023-02-01T08:06:02;796.47;;;526.10;;
74459;SDS011;62902;48.854;9.292;2023-02-01T08:08:28;786.25;;;508.98;;
74459;SDS011;62902;48.854;9.292;2023-02-01T08:10:59;798.45;;;528.40;;
74459;SDS011;62902;48.854;9.292;2023-02-01T08:13:26;906.40;;;616.20;;
74459;SDS011;62902;48.854;9.292;2023-02-01T08:15:57;842.95;;;591.15;;
74459;SDS011;62902;48.854;9.292;2023-02-01T08:18:24;850.72;;;598.10;;
74459;SDS011;62902;48.854;9.292;2023-02-01T08:21:02;846.43;;;592.23;;
74459;SDS011;62902;48.854;9.292;2023-02-01T08:23:33;849.38;;;599.92;;
74459;SDS011;62902;48.854;9.292;2023-02-01T08:26:43;854.10;;;607.38;;
74459;SDS011;62902;48.854;9.292;2023-02-01T08:28:52;853.45;;;607.22;;
74459;SDS011;62902;48.854;9.292;2023-02-01T08:31:24;858.35;;;602.63;;
74459;SDS011;62902;48.854;9.292;2023-02-01T08:33:56;909.83;;;650.00;;
74459;SDS011;62902;48.854;9.292;2023-02-01T08:36:25;920.03;;;680.97;;
74459;SDS011;62902;48.854;9.292;2023-02-01T08:38:52;916.47;;;688.47;;
74459;SDS011;62902;48.854;9.292;2023-02-01T08:41:20;918.47;;;681.20;;
74459;SDS011;62902;48.854;9.292;2023-02-01T08:43:48;917.17;;;675.53;;
74459;SDS011;62902;48.854;9.292;2023-02-01T08:46:16;922.85;;;710.30;;
74459;SDS011;62902;48.854;9.292;2023-02-01T08:48:42;909.22;;;682.83;;
74459;SDS011;62902;48.854;9.292;2023-02-01T08:51:11;903.60;;;669.25;;
74459;SDS011;62902;48.854;9.292;2023-02-01T08:53:38;890.42;;;641.45;;
74459;SDS011;62902;48.854;9.292;2023-02-01T08:56:07;901.63;;;652.97;;
74459;SDS011;62902;48.854;9.292;2023-02-01T08:58:35;895.42;;;634.60;;
74459;SDS011;62902;48.854;9.292;2023-02-01T09:01:05;907.35;;;650.78;;
74459;SDS011;62902;48.854;9.292;2023-02-01T09:03:33;909.50;;;654.43;;
74459;SDS011;62902;48.854;9.292;2023-02-01T09:06:03;929.00;;;651.72;;
74459;SDS011;62902;48.854;9.292;2023-02-01T09:08:35;927.17;;;656.92;;
74459;SDS011;62902;48.854;9.292;2023-02-01T09:11:03;904.30;;;639.63;;
74459;SDS011;62902;48.854;9.292;2023-02-01T09:13:32;916.17;;;648.70;;
74459;SDS011;62902;48.854;9.292;2023-02-01T09:15:59;916.17;;;649.93;;
74459;SDS011;62902;48.854;9.292;2023-02-01T09:18:26;919.25;;;665.17;;
74459;SDS011;62902;48.854;9.292;2023-02-01T09:20:53;918.30;;;661.78;;
74459;SDS011;62902;48.854;9.292;2023-02-01T09:23:19;925.47;;;667.97;;
74459;SDS011;62902;48.854;9.292;2023-02-01T09:25:46;930.60;;;666.38;;
74459;SDS011;62902;48.854;9.292;2023-02-01T09:28:16;935.30;;;670.70;;
74459;SDS011;62902;48.854;9.292;2023-02-01T09:30:43;920.92;;;665.65;;
74459;SDS011;62902;48.854;9.292;2023-02-01T09:33:10;871.22;;;588.50;;
74459;SDS011;62902;48.854;9.292;2023-02-01T09:35:37;870.33;;;586.20;;
74459;SDS011;62902;48.854;9.292;2023-02-01T09:38:04;868.60;;;576.17;;
74459;SDS011;62902;48.854;9.292;2023-02-01T09:40:30;864.22;;;572.83;;
74459;SDS011;62902;48.854;9.292;2023-02-01T09:48:32;878.65;;;604.47;;
74459;SDS011;62902;48.854;9.292;2023-02-01T09:51:02;909.70;;;612.38;;
74459;SDS011;62902;48.854;9.292;2023-02-01T09:53:35;902.55;;;610.50;;
74459;SDS011;62902;48.854;9.292;2023-02-01T09:56:06;878.38;;;591.22;;
74459;SDS011;62902;48.854;9.292;2023-02-01T09:58:41;890.20;;;593.40;;
74459;SDS011;62902;48.854;9.292;2023-02-01T10:01:15;885.47;;;590.35;;
74459;SDS011;62902;48.854;9.292;2023-02-01T10:03:45;886.30;;;596.10;;
74459;SDS011;62902;48.854;9.292;2023-02-01T10:11:52;886.17;;;595.67;;
74459;SDS011;62902;48.854;9.292;2023-02-01T10:18:21;878.30;;;589.45;;
74459;SDS011;62902;48.854;9.292;2023-02-01T10:26:12;893.20;;;595.10;;
74459;SDS011;62902;48.854;9.292;2023-02-01T10:28:44;899.13;;;599.30;;
74459;SDS011;62902;48.854;9.292;2023-02-01T10:31:15;899.13;;;598.33;;
74459;SDS011;62902;48.854;9.292;2023-02-01T10:34:01;896.97;;;598.73;;
74459;SDS011;62902;48.854;9.292;2023-02-01T10:36:40;898.58;;;594.53;;
74459;SDS011;62902;48.854;9.292;2023-02-01T10:39:09;923.83;;;596.55;;
74459;SDS011;62902;48.854;9.292;2023-02-01T10:41:38;923.95;;;604.20;;
74459;SDS011;62902;48.854;9.292;2023-02-01T10:44:07;914.03;;;612.30;;
74459;SDS011;62902;48.854;9.292;2023-02-01T10:46:37;920.70;;;615.17;;
74459;SDS011;62902;48.854;9.292;2023-02-01T10:49:04;912.07;;;604.03;;
74459;SDS011;62902;48.854;9.292;2023-02-01T10:51:41;911.53;;;611.53;;
74459;SDS011;62902;48.854;9.292;2023-02-01T10:54:11;913.97;;;583.50;;
74459;SDS011;62902;48.854;9.292;2023-02-01T10:56:43;905.67;;;589.00;;
74459;SDS011;62902;48.854;9.292;2023-02-01T10:59:18;906.05;;;597.70;;
74459;SDS011;62902;48.854;9.292;2023-02-01T11:01:48;902.63;;;593.30;;
74459;SDS011;62902;48.854;9.292;2023-02-01T11:04:16;908.50;;;589.60;;
74459;SDS011;62902;48.854;9.292;2023-02-01T11:07:05;915.30;;;599.85;;
74459;SDS011;62902;48.854;9.292;2023-02-01T11:09:51;945.47;;;605.38;;
74459;SDS011;62902;48.854;9.292;2023-02-01T11:12:31;944.15;;;612.20;;
74459;SDS011;62902;48.854;9.292;2023-02-01T11:15:14;919.70;;;602.53;;
74459;SDS011;62902;48.854;9.292;2023-02-01T11:17:46;937.22;;;623.85;;
74459;SDS011;62902;48.854;9.292;2023-02-01T11:20:15;929.22;;;620.85;;
74459;SDS011;62902;48.854;9.292;2023-02-01T11:22:53;929.72;;;614.28;;
74459;SDS011;62902;48.854;9.292;2023-02-01T11:25:21;928.72;;;614.08;;
74459;SDS011;62902;48.854;9.292;2023-02-01T11:27:49;926.97;;;613.53;;
74459;SDS011;62902;48.854;9.292;2023-02-01T11:30:31;938.35;;;631.50;;
74459;SDS011;62902;48.854;9.292;2023-02-01T11:33:00;933.13;;;627.47;;
74459;SDS011;62902;48.854;9.292;2023-02-01T11:35:29;932.17;;;629.03;;
74459;SDS011;62902;48.854;9.292;2023-02-01T11:37:57;926.63;;;620.85;;
74459;SDS011;62902;48.854;9.292;2023-02-01T11:40:29;998.80;;;683.80;;
74459;SDS011;62902;48.854;9.292;2023-02-01T11:43:15;972.35;;;674.55;;
74459;SDS011;62902;48.854;9.292;2023-02-01T11:46:00;902.13;;;635.25;;
74459;SDS011;62902;48.854;9.292;2023-02-01T11:48:29;912.60;;;630.75;;
74459;SDS011;62902;48.854;9.292;2023-02-01T11:59:36;906.40;;;619.75;;
74459;SDS011;62902;48.854;9.292;2023-02-01T12:05:09;1005.35;;;679.22;;
74459;SDS011;62902;48.854;9.292;2023-02-01T12:14:19;945.65;;;685.67;;
74459;SDS011;62902;48.854;9.292;2023-02-01T12:28:53;951.78;;;668.25;;
74459;SDS011;62902;48.854;9.292;2023-02-01T12:31:08;952.97;;;682.80;;
74459;SDS011;62902;48.854;9.292;2023-02-01T12:39:17;958.93;;;684.40;;
74459;SDS011;62902;48.854;9.292;2023-02-01T12:44:28;963.33;;;675.90;;
74459;SDS011;62902;48.854;9.292;2023-02-01T12:49:40;908.23;;;625.23;;
74459;SDS011;62902;48.854;9.292;2023-02-01T12:52:32;906.30;;;629.05;;
74459;SDS011;62902;48.854;9.292;2023-02-01T12:57:42;901.88;;;624.92;;
74459;SDS011;62902;48.854;9.292;2023-02-01T13:02:43;900.60;;;624.47;;
74459;SDS011;62902;48.854;9.292;2023-02-01T13:05:17;910.63;;;630.13;;
74459;SDS011;62902;48.854;9.292;2023-02-01T13:10:23;891.63;;;634.85;;
74459;SDS011;62902;48.854;9.292;2023-02-01T13:12:53;893.40;;;628.80;;
74459;SDS011;62902;48.854;9.292;2023-02-01T13:15:24;886.00;;;616.60;;
74459;SDS011;62902;48.854;9.292;2023-02-01T13:17:54;956.80;;;701.00;;
74459;SDS011;62902;48.854;9.292;2023-02-01T13:25:48;887.70;;;628.88;;
74459;SDS011;62902;48.854;9.292;2023-02-01T13:28:17;882.38;;;621.55;;
74459;SDS011;62902;48.854;9.292;2023-02-01T13:31:44;880.00;;;616.55;;
74459;SDS011;62902;48.854;9.292;2023-02-01T13:33:59;814.28;;;443.60;;
74459;SDS011;62902;48.854;9.292;2023-02-01T13:42:52;737.42;;;465.10;;
74459;SDS011;62902;48.854;9.292;2023-02-01T13:45:01;776.22;;;433.23;;
74459;SDS011;62902;48.854;9.292;2023-02-01T13:47:35;726.38;;;469.50;;
74459;SDS011;62902;48.854;9.292;2023-02-01T13:52:53;802.23;;;449.10;;
74459;SDS011;62902;48.854;9.292;2023-02-01T13:56:05;795.45;;;433.05;;
74459;SDS011;62902;48.854;9.292;2023-02-01T13:58:39;783.78;;;427.13;;
74459;SDS011;62902;48.854;9.292;2023-02-01T14:03:53;701.75;;;432.92;;
74459;SDS011;62902;48.854;9.292;2023-02-01T14:11:52;784.92;;;441.83;;
74459;SDS011;62902;48.854;9.292;2023-02-01T14:19:26;808.90;;;433.83;;
74459;SDS011;62902;48.854;9.292;2023-02-01T14:22:01;799.13;;;430.42;;
74459;SDS011;62902;48.854;9.292;2023-02-01T14:24:50;786.75;;;420.67;;
74459;SDS011;62902;48.854;9.292;2023-02-01T14:27:21;772.03;;;407.87;;
74459;SDS011;62902;48.854;9.292;2023-02-01T14:29:56;662.47;;;384.70;;
74459;SDS011;62902;48.854;9.292;2023-02-01T14:32:38;761.60;;;404.17;;
74459;SDS011;62902;48.854;9.292;2023-02-01T14:37:39;625.97;;;400.83;;
74459;SDS011;62902;48.854;9.292;2023-02-01T15:11:56;750.42;;;413.70;;
74459;SDS011;62902;48.854;9.292;2023-02-01T15:14:31;673.60;;;426.92;;
74459;SDS011;62902;48.854;9.292;2023-02-01T15:17:02;749.08;;;432.40;;
74459;SDS011;62902;48.854;9.292;2023-02-01T15:19:29;761.93;;;423.53;;
74459;SDS011;62902;48.854;9.292;2023-02-01T15:21:59;773.10;;;430.10;;
74459;SDS011;62902;48.854;9.292;2023-02-01T15:26:54;778.25;;;426.23;;
74459;SDS011;62902;48.854;9.292;2023-02-01T15:29:22;678.55;;;428.15;;
74459;SDS011;62902;48.854;9.292;2023-02-01T15:31:54;762.28;;;434.80;;
74459;SDS011;62902;48.854;9.292;2023-02-01T15:34:21;772.77;;;432.53;;
74459;SDS011;62902;48.854;9.292;2023-02-01T15:36:47;763.25;;;421.95;;
74459;SDS011;62902;48.854;9.292;2023-02-01T15:39:27;669.70;;;428.00;;
74459;SDS011;62902;48.854;9.292;2023-02-01T15:41:59;751.28;;;430.98;;
74459;SDS011;62902;48.854;9.292;2023-02-01T15:44:39;785.80;;;442.65;;
74459;SDS011;62902;48.854;9.292;2023-02-01T15:47:18;781.40;;;431.80;;
74459;SDS011;62902;48.854;9.292;2023-02-01T15:49:47;783.58;;;428.17;;
74459;SDS011;62902;48.854;9.292;2023-02-01T15:54:58;831.83;;;448.85;;
74459;SDS011;62902;48.854;9.292;2023-02-01T15:57:30;831.50;;;448.40;;
74459;SDS011;62902;48.854;9.292;2023-02-01T16:00:00;819.33;;;438.95;;
74459;SDS011;62902;48.854;9.292;2023-02-01T16:02:42;839.88;;;467.23;;
74459;SDS011;62902;48.854;9.292;2023-02-01T16:08:01;840.92;;;473.10;;
74459;SDS011;62902;48.854;9.292;2023-02-01T16:10:40;838.85;;;467.50;;
74459;SDS011;62902;48.854;9.292;2023-02-01T16:13:08;851.45;;;481.95;;
74459;SDS011;62902;48.854;9.292;2023-02-01T16:15:35;835.60;;;456.92;;
74459;SDS011;62902;48.854;9.292;2023-02-01T16:18:02;851.75;;;483.65;;
74459;SDS011;62902;48.854;9.292;2023-02-01T16:20:28;845.47;;;474.58;;
74459;SDS011;62902;48.854;9.292;2023-02-01T16:22:56;856.22;;;480.27;;
74459;SDS011;62902;48.854;9.292;2023-02-01T16:25:22;862.50;;;485.58;;
74459;SDS011;62902;48.854;9.292;2023-02-01T16:27:50;809.97;;;421.30;;
74459;SDS011;62902;48.854;9.292;2023-02-01T16:30:16;841.58;;;473.02;;
74459;SDS011;62902;48.854;9.292;2023-02-01T16:32:51;840.80;;;466.27;;
74459;SDS011;62902;48.854;9.292;2023-02-01T16:35:25;862.40;;;504.20;;
74459;SDS011;62902;48.854;9.292;2023-02-01T16:37:53;858.80;;;499.05;;
74459;SDS011;62902;48.854;9.292;2023-02-01T16:40:21;851.63;;;484.52;;
74459;SDS011;62902;48.854;9.292;2023-02-01T16:42:49;846.55;;;482.63;;
74459;SDS011;62902;48.854;9.292;2023-02-01T16:45:17;733.28;;;363.38;;
74459;SDS011;62902;48.854;9.292;2023-02-01T16:47:47;868.25;;;516.75;;
74459;SDS011;62902;48.854;9.292;2023-02-01T16:50:18;846.80;;;496.45;;
74459;SDS011;62902;48.854;9.292;2023-02-01T16:52:49;855.28;;;511.35;;
74459;SDS011;62902;48.854;9.292;2023-02-01T16:55:17;855.25;;;509.55;;
74459;SDS011;62902;48.854;9.292;2023-02-01T16:57:46;862.05;;;514.03;;
74459;SDS011;62902;48.854;9.292;2023-02-01T17:00:13;869.90;;;524.10;;
74459;SDS011;62902;48.854;9.292;2023-02-01T17:02:50;874.03;;;540.15;;
74459;SDS011;62902;48.854;9.292;2023-02-01T17:05:18;852.65;;;524.33;;
74459;SDS011;62902;48.854;9.292;2023-02-01T17:07:50;864.00;;;530.17;;
74459;SDS011;62902;48.854;9.292;2023-02-01T17:10:23;862.67;;;519.38;;
74459;SDS011;62902;48.854;9.292;2023-02-01T17:13:00;864.75;;;522.28;;
74459;SDS011;62902;48.854;9.292;2023-02-01T17:15:28;865.72;;;520.42;;
74459;SDS011;62902;48.854;9.292;2023-02-01T17:18:00;873.55;;;535.05;;